createdAt,value
2017-07-11T00:00:17.231Z,10.87
2017-07-11T00:02:44.646Z,12.03
2017-07-11T00:05:12.076Z,11.07
2017-07-11T00:07:39.495Z,10.77
2017-07-11T00:10:06.907Z,11.47
2017-07-11T00:12:34.351Z,11.63
2017-07-11T00:15:01.770Z,11.73
2017-07-11T00:17:29.190Z,11.77
2017-07-11T00:19:56.612Z,12.40
2017-07-11T00:22:24.026Z,12.80
2017-07-11T00:24:51.461Z,12.03
2017-07-11T00:27:18.890Z,12.17
2017-07-11T00:29:46.307Z,13.27
2017-07-11T00:32:13.719Z,13.43
2017-07-11T00:34:41.176Z,14.57
2017-07-11T00:37:08.595Z,14.20
2017-07-11T00:39:36.018Z,14.07
2017-07-11T00:42:03.470Z,13.53
2017-07-11T00:44:30.897Z,12.60
2017-07-11T00:46:58.319Z,12.93
2017-07-11T00:49:25.758Z,13.80
2017-07-11T00:51:53.184Z,12.87
2017-07-11T00:54:20.596Z,12.57
2017-07-11T00:56:48.026Z,13.17
2017-07-11T00:59:15.442Z,12.53
2017-07-11T01:01:42.859Z,11.73
2017-07-11T01:04:10.295Z,13.37
2017-07-11T01:06:37.743Z,12.20
2017-07-11T01:09:05.150Z,11.27
2017-07-11T01:11:32.599Z,12.87
2017-07-11T01:14:00.026Z,11.07
2017-07-11T01:16:27.442Z,12.13
2017-07-11T01:18:54.879Z,12.20
2017-07-11T01:21:22.286Z,12.80
2017-07-11T01:23:49.716Z,11.40
2017-07-11T01:26:25.087Z,11.67
2017-07-11T01:28:52.504Z,11.67
2017-07-11T01:31:19.924Z,12.23
2017-07-11T01:33:47.354Z,11.60
2017-07-11T01:36:14.772Z,11.93
2017-07-11T01:38:42.180Z,12.80
2017-07-11T01:41:09.615Z,12.70
2017-07-11T01:43:37.043Z,13.47
2017-07-11T01:46:04.462Z,12.67
2017-07-11T01:48:31.922Z,12.47
2017-07-11T01:50:59.364Z,12.47
2017-07-11T01:53:26.788Z,12.73
2017-07-11T01:55:54.248Z,13.43
2017-07-11T01:58:21.671Z,12.53
2017-07-11T02:00:49.091Z,11.87
2017-07-11T02:03:16.531Z,13.20
2017-07-11T02:05:43.951Z,13.27
2017-07-11T02:08:11.376Z,13.00
2017-07-11T02:10:38.824Z,13.30
2017-07-11T02:13:06.247Z,13.10
2017-07-11T02:15:33.660Z,12.70
2017-07-11T02:18:01.255Z,12.27
2017-07-11T02:20:28.666Z,13.70
2017-07-11T02:22:56.086Z,13.10
2017-07-11T02:25:23.527Z,13.17
2017-07-11T02:27:50.938Z,13.23
2017-07-11T02:30:18.350Z,12.90
2017-07-11T02:32:45.794Z,11.93
2017-07-11T02:35:13.212Z,12.80
2017-07-11T02:37:40.631Z,13.57
2017-07-11T02:40:08.071Z,14.03
2017-07-11T02:42:35.477Z,13.63
2017-07-11T02:45:02.895Z,12.70
2017-07-11T02:47:30.474Z,12.60
2017-07-11T02:49:57.882Z,12.83
2017-07-11T02:52:25.299Z,13.60
2017-07-11T02:54:52.730Z,14.10
2017-07-11T02:57:20.153Z,12.37
2017-07-11T02:59:47.577Z,12.37
2017-07-11T03:02:15.007Z,12.20
2017-07-11T03:04:42.426Z,12.73
2017-07-11T03:07:09.852Z,13.10
2017-07-11T03:09:37.286Z,11.80
2017-07-11T03:12:04.715Z,12.73
2017-07-11T03:14:32.126Z,11.87
2017-07-11T03:16:59.571Z,12.30
2017-07-11T03:19:26.994Z,11.63
2017-07-11T03:21:54.398Z,12.20
2017-07-11T03:24:21.835Z,12.73
2017-07-11T03:26:49.248Z,14.13
2017-07-11T03:29:16.684Z,13.80
2017-07-11T03:31:44.119Z,12.90
2017-07-11T03:34:11.538Z,13.13
2017-07-11T03:36:38.963Z,13.17
2017-07-11T03:39:06.395Z,11.73
2017-07-11T03:41:33.807Z,12.67
2017-07-11T03:44:01.218Z,12.63
2017-07-11T03:46:28.701Z,13.13
2017-07-11T03:48:56.124Z,11.87
2017-07-11T03:51:23.535Z,12.57
2017-07-11T03:53:50.978Z,11.33
2017-07-11T03:56:18.408Z,11.87
2017-07-11T03:58:45.814Z,11.67
2017-07-11T04:01:13.255Z,11.20
2017-07-11T04:03:40.666Z,11.10
2017-07-11T04:06:08.082Z,11.07
2017-07-11T04:08:35.523Z,11.50
2017-07-11T04:11:02.951Z,11.10
2017-07-11T04:13:30.373Z,13.50
2017-07-11T04:15:57.810Z,10.93
2017-07-11T04:18:25.220Z,12.17
2017-07-11T04:20:52.631Z,11.47
2017-07-11T04:23:20.064Z,12.20
2017-07-11T04:25:47.487Z,10.50
2017-07-11T04:28:14.914Z,11.83
2017-07-11T04:30:42.354Z,11.53
2017-07-11T04:33:09.799Z,11.23
2017-07-11T04:35:37.202Z,10.40
2017-07-11T04:38:04.634Z,10.00
2017-07-11T04:40:32.044Z,10.57
2017-07-11T04:42:59.443Z,9.30
2017-07-11T04:45:26.866Z,10.70
2017-07-11T04:47:54.272Z,10.40
2017-07-11T04:50:21.689Z,10.60
2017-07-11T04:52:49.140Z,9.83
2017-07-11T04:55:16.534Z,10.33
2017-07-11T04:57:44.098Z,10.10
2017-07-11T05:00:11.530Z,10.10
2017-07-11T05:02:39.118Z,9.27
2017-07-11T05:05:06.518Z,9.33
2017-07-11T05:07:33.943Z,9.43
2017-07-11T05:10:01.359Z,10.53
2017-07-11T05:12:28.766Z,10.40
2017-07-11T05:14:56.191Z,9.03
2017-07-11T05:17:23.617Z,10.20
2017-07-11T05:19:51.018Z,9.03
2017-07-11T05:22:18.459Z,8.83
2017-07-11T05:24:45.858Z,9.30
2017-07-11T05:27:13.284Z,9.70
2017-07-11T05:29:40.719Z,9.40
2017-07-11T05:32:08.131Z,8.70
2017-07-11T05:34:35.551Z,10.40
2017-07-11T05:37:02.972Z,9.90
2017-07-11T05:39:30.379Z,9.90
2017-07-11T05:41:57.791Z,9.40
2017-07-11T05:44:25.222Z,9.10
2017-07-11T05:46:52.641Z,9.60
2017-07-11T05:49:20.052Z,10.07
2017-07-11T05:51:47.506Z,10.20
2017-07-11T05:54:14.946Z,10.00
2017-07-11T05:56:42.360Z,9.83
2017-07-11T05:59:09.823Z,9.60
2017-07-11T06:01:37.454Z,10.07
2017-07-11T06:04:04.859Z,9.90
2017-07-11T06:06:32.338Z,9.30
2017-07-11T06:08:59.743Z,9.73
2017-07-11T06:11:27.178Z,10.00
2017-07-11T06:13:54.626Z,10.00
2017-07-11T06:16:22.038Z,10.40
2017-07-11T06:18:49.479Z,9.90
2017-07-11T06:21:16.914Z,10.10
2017-07-11T06:23:44.311Z,9.47
2017-07-11T06:26:11.718Z,9.27
2017-07-11T06:28:39.150Z,9.03
2017-07-11T06:31:06.591Z,10.13
2017-07-11T06:33:34.014Z,11.23
2017-07-11T06:36:01.520Z,10.10
2017-07-11T06:38:28.939Z,10.10
2017-07-11T06:40:56.427Z,11.40
2017-07-11T06:43:23.856Z,12.70
2017-07-11T06:45:51.283Z,10.47
2017-07-11T06:48:18.693Z,10.43
2017-07-11T06:50:46.973Z,11.13
2017-07-11T06:53:14.403Z,11.63
2017-07-11T06:55:41.836Z,12.13
2017-07-11T06:58:09.266Z,10.57
2017-07-11T07:00:36.688Z,10.80
2017-07-11T07:03:04.097Z,10.40
2017-07-11T07:05:31.546Z,10.13
2017-07-11T07:07:58.972Z,9.90
2017-07-11T07:10:26.383Z,9.73
2017-07-11T07:12:53.823Z,10.73
2017-07-11T07:15:21.279Z,10.20
2017-07-11T07:17:48.715Z,9.87
2017-07-11T07:20:16.131Z,9.90
2017-07-11T07:22:43.570Z,10.60
2017-07-11T07:25:10.987Z,11.47
2017-07-11T07:27:38.427Z,10.50
2017-07-11T07:30:05.850Z,11.27
2017-07-11T07:32:33.306Z,10.57
2017-07-11T07:35:00.737Z,10.20
2017-07-11T07:37:28.150Z,10.83
2017-07-11T07:39:55.584Z,10.30
2017-07-11T07:42:23.010Z,10.23
2017-07-11T07:44:50.413Z,9.77
2017-07-11T07:47:17.831Z,11.10
2017-07-11T07:49:45.261Z,10.13
2017-07-11T07:52:12.671Z,10.17
2017-07-11T07:54:40.082Z,11.00
2017-07-11T07:57:07.516Z,10.13
2017-07-11T07:59:34.923Z,10.57
2017-07-11T08:02:02.330Z,10.70
2017-07-11T08:04:29.766Z,12.50
2017-07-11T08:06:57.219Z,11.33
2017-07-11T08:09:24.621Z,9.50
2017-07-11T08:11:52.058Z,11.30
2017-07-11T08:14:19.475Z,9.63
2017-07-11T08:16:46.890Z,10.57
2017-07-11T08:19:14.318Z,9.43
2017-07-11T08:21:41.726Z,9.57
2017-07-11T08:24:09.134Z,10.40
2017-07-11T08:26:36.559Z,9.93
2017-07-11T08:29:03.979Z,10.47
2017-07-11T08:31:31.407Z,10.77
2017-07-11T08:33:58.831Z,10.50
2017-07-11T08:36:26.243Z,10.27
2017-07-11T08:38:53.658Z,10.53
2017-07-11T08:41:21.100Z,11.20
2017-07-11T08:43:48.513Z,10.80
2017-07-11T08:46:15.930Z,11.13
2017-07-11T08:48:43.374Z,10.07
2017-07-11T08:51:10.794Z,10.97
2017-07-11T08:53:38.198Z,10.40
2017-07-11T08:56:05.639Z,10.00
2017-07-11T08:58:33.046Z,9.63
2017-07-11T09:01:00.450Z,9.20
2017-07-11T09:03:27.884Z,12.07
2017-07-11T09:05:55.302Z,9.00
2017-07-11T09:08:22.704Z,9.30
2017-07-11T09:10:50.158Z,9.00
2017-07-11T09:13:17.564Z,9.43
2017-07-11T09:15:44.967Z,8.80
2017-07-11T09:18:12.408Z,9.30
2017-07-11T09:20:39.815Z,8.70
2017-07-11T09:23:07.224Z,9.40
2017-07-11T09:25:34.648Z,9.00
2017-07-11T09:28:02.058Z,9.13
2017-07-11T09:30:29.480Z,8.70
2017-07-11T09:32:56.903Z,8.70
2017-07-11T09:35:24.313Z,9.10
2017-07-11T09:37:51.719Z,8.77
2017-07-11T09:40:19.137Z,9.77
2017-07-11T09:42:46.548Z,8.57
2017-07-11T09:45:13.956Z,9.33
2017-07-11T09:47:41.395Z,10.33
2017-07-11T09:50:08.804Z,9.20
2017-07-11T09:52:36.214Z,8.87
2017-07-11T09:55:03.635Z,7.43
2017-07-11T09:57:31.038Z,9.53
2017-07-11T09:59:58.498Z,8.87
2017-07-11T10:02:25.919Z,8.63
2017-07-11T10:04:53.334Z,10.00
2017-07-11T10:07:20.739Z,8.63
2017-07-11T10:09:48.158Z,9.47
2017-07-11T10:12:15.569Z,9.63
2017-07-11T10:14:42.978Z,9.50
2017-07-11T10:17:10.403Z,9.63
2017-07-11T10:19:37.814Z,9.40
2017-07-11T10:22:05.225Z,9.43
2017-07-11T10:24:32.646Z,8.03
2017-07-11T10:27:00.051Z,9.33
2017-07-11T10:29:27.465Z,9.63
2017-07-11T10:31:54.882Z,9.40
2017-07-11T10:34:22.295Z,7.97
2017-07-11T10:36:49.701Z,7.97
2017-07-11T10:39:17.136Z,8.30
2017-07-11T10:41:44.545Z,8.33
2017-07-11T10:44:11.963Z,8.07
2017-07-11T10:46:39.382Z,7.60
2017-07-11T10:49:06.791Z,7.73
2017-07-11T10:51:34.199Z,8.10
2017-07-11T10:54:01.640Z,7.70
2017-07-11T10:56:29.042Z,7.73
2017-07-11T10:58:56.454Z,7.90
2017-07-11T11:01:23.911Z,8.13
2017-07-11T11:03:51.322Z,8.97
2017-07-11T11:06:18.729Z,10.00
2017-07-11T11:08:46.166Z,8.83
2017-07-11T11:11:13.603Z,9.53
2017-07-11T11:13:41.023Z,9.33
2017-07-11T11:16:08.445Z,9.13
2017-07-11T11:18:35.885Z,9.73
2017-07-11T11:21:03.282Z,8.60
2017-07-11T11:23:30.705Z,8.63
2017-07-11T11:25:58.134Z,10.83
2017-07-11T11:28:25.578Z,9.57
2017-07-11T11:30:53.011Z,10.20
2017-07-11T11:33:20.471Z,10.47
2017-07-11T11:35:47.904Z,10.10
2017-07-11T11:38:15.335Z,9.60
2017-07-11T11:40:42.744Z,10.80
2017-07-11T11:43:10.150Z,10.07
2017-07-11T11:45:37.595Z,9.80
2017-07-11T11:48:05.022Z,9.80
2017-07-11T11:50:32.436Z,10.40
2017-07-11T11:52:59.888Z,10.23
2017-07-11T11:55:27.291Z,9.47
2017-07-11T11:57:54.707Z,10.07
2017-07-11T12:00:22.139Z,10.63
2017-07-11T12:02:49.580Z,10.30
2017-07-11T12:05:16.986Z,10.00
2017-07-11T12:07:44.431Z,9.60
2017-07-11T12:10:11.856Z,11.20
2017-07-11T12:12:39.271Z,10.70
2017-07-11T12:15:06.706Z,9.30
2017-07-11T12:17:34.123Z,9.87
2017-07-11T12:20:01.522Z,9.93
2017-07-11T12:22:28.955Z,9.90
2017-07-11T12:24:56.360Z,9.73
2017-07-11T12:27:23.763Z,9.57
2017-07-11T12:29:51.182Z,9.50
2017-07-11T12:32:18.603Z,10.37
2017-07-11T12:34:46.015Z,9.90
2017-07-11T12:37:13.455Z,9.67
2017-07-11T12:39:40.868Z,9.23
2017-07-11T12:42:08.447Z,9.10
2017-07-11T12:44:35.877Z,10.17
2017-07-11T12:47:03.299Z,10.27
2017-07-11T12:49:30.706Z,10.30
2017-07-11T12:51:58.146Z,10.30
2017-07-11T12:54:25.572Z,10.30
2017-07-11T12:56:52.999Z,10.40
2017-07-11T12:59:20.438Z,10.37
2017-07-11T13:01:47.863Z,11.13
2017-07-11T13:04:15.279Z,10.13
2017-07-11T13:06:42.742Z,9.87
2017-07-11T13:09:10.163Z,10.53
2017-07-11T13:11:37.587Z,11.23
2017-07-11T13:14:05.025Z,10.10
2017-07-11T13:16:32.478Z,10.67
2017-07-11T13:18:59.897Z,10.40
2017-07-11T13:21:27.339Z,9.80
2017-07-11T13:23:54.754Z,10.07
2017-07-11T13:26:22.183Z,11.37
2017-07-11T13:28:49.626Z,10.37
2017-07-11T13:31:17.047Z,9.90
2017-07-11T13:33:45.101Z,9.20
2017-07-11T13:36:12.531Z,9.63
2017-07-11T13:38:39.958Z,10.90
2017-07-11T13:41:07.380Z,10.47
2017-07-11T13:43:34.810Z,9.70
2017-07-11T13:46:02.232Z,9.60
2017-07-11T13:48:29.645Z,10.77
2017-07-11T13:50:57.079Z,9.87
2017-07-11T13:53:24.589Z,10.23
2017-07-11T13:55:51.995Z,10.70
2017-07-11T13:58:19.444Z,11.00
2017-07-11T14:00:46.885Z,11.20
2017-07-11T14:03:14.323Z,10.40
2017-07-11T14:05:41.769Z,11.30
2017-07-11T14:08:09.198Z,10.80
2017-07-11T14:10:36.622Z,10.63
2017-07-11T14:13:04.061Z,11.23
2017-07-11T14:15:31.535Z,11.17
2017-07-11T14:17:58.952Z,11.27
2017-07-11T14:20:26.407Z,11.33
2017-07-11T14:22:53.826Z,11.60
2017-07-11T14:25:21.246Z,11.00
2017-07-11T14:27:48.683Z,11.60
2017-07-11T14:30:16.105Z,11.97
2017-07-11T14:32:43.531Z,11.93
2017-07-11T14:35:11.757Z,11.00
2017-07-11T14:37:39.173Z,11.60
2017-07-11T14:40:06.582Z,11.03
2017-07-11T14:42:34.020Z,12.27
2017-07-11T14:45:01.434Z,11.90
2017-07-11T14:47:28.860Z,12.67
2017-07-11T14:49:56.290Z,12.23
2017-07-11T14:52:23.706Z,12.13
2017-07-11T14:54:51.145Z,12.47
2017-07-11T14:57:18.594Z,12.33
2017-07-11T14:59:46.030Z,13.20
2017-07-11T15:02:13.442Z,12.90
2017-07-11T15:04:40.894Z,13.47
2017-07-11T15:07:08.307Z,13.40
2017-07-11T15:09:35.730Z,15.97
2017-07-11T15:12:03.181Z,14.40
2017-07-11T15:14:30.644Z,15.40
2017-07-11T15:16:58.096Z,15.07
2017-07-11T15:19:25.552Z,16.73
2017-07-11T15:21:52.981Z,17.40
2017-07-11T15:24:20.400Z,15.83
2017-07-11T15:26:47.822Z,15.77
2017-07-11T15:29:15.255Z,15.90
2017-07-11T15:31:42.680Z,15.77
2017-07-11T15:34:10.135Z,15.63
2017-07-11T15:36:37.576Z,15.73
2017-07-11T15:39:05.004Z,14.13
2017-07-11T15:41:45.702Z,14.50
2017-07-11T15:44:13.143Z,14.50
2017-07-11T15:46:40.558Z,14.57
2017-07-11T15:49:07.998Z,14.50
2017-07-11T15:51:36.242Z,14.73
2017-07-11T15:54:03.672Z,14.30
2017-07-11T15:56:31.102Z,14.30
2017-07-11T15:58:59.586Z,14.60
2017-07-11T16:01:27.015Z,15.30
2017-07-11T16:03:54.589Z,15.17
2017-07-11T16:06:22.301Z,14.90
2017-07-11T16:08:49.706Z,14.73
2017-07-11T16:11:18.365Z,14.47
2017-07-11T16:13:45.895Z,14.53
2017-07-11T16:16:13.409Z,15.13
2017-07-11T16:18:40.847Z,14.63
2017-07-11T16:21:08.267Z,14.10
2017-07-11T16:23:36.002Z,13.67
2017-07-11T16:26:03.529Z,14.40
2017-07-11T16:28:31.689Z,14.70
2017-07-11T16:30:59.103Z,15.27
2017-07-11T16:33:26.566Z,14.80
2017-07-11T16:35:54.362Z,15.23
2017-07-11T16:38:21.775Z,15.67
2017-07-11T16:40:49.227Z,14.90
2017-07-11T16:43:16.642Z,15.20
2017-07-11T16:45:44.060Z,16.70
2017-07-11T16:48:11.489Z,13.97
2017-07-11T16:50:38.909Z,15.20
2017-07-11T16:53:06.324Z,14.07
2017-07-11T16:55:33.752Z,15.73
2017-07-11T16:58:01.164Z,13.70
2017-07-11T17:00:28.578Z,14.43
2017-07-11T17:02:56.026Z,13.30
2017-07-11T17:05:23.439Z,14.23
2017-07-11T17:07:55.735Z,14.73
2017-07-11T17:10:23.155Z,13.80
2017-07-11T17:12:50.563Z,14.83
2017-07-11T17:15:17.999Z,13.60
2017-07-11T17:17:45.414Z,14.40
2017-07-11T17:20:12.862Z,15.07
2017-07-11T17:22:40.334Z,14.53
2017-07-11T17:25:08.063Z,15.00
2017-07-11T17:27:35.499Z,16.37
2017-07-11T17:30:02.930Z,14.73
2017-07-11T17:32:30.370Z,14.93
2017-07-11T17:34:57.775Z,13.73
2017-07-11T17:37:25.231Z,14.73
2017-07-11T17:39:52.650Z,14.73
2017-07-11T17:42:20.087Z,15.83
2017-07-11T17:44:47.515Z,14.17
2017-07-11T17:47:14.935Z,14.57
2017-07-11T17:49:46.440Z,15.73
2017-07-11T17:52:13.921Z,14.93
2017-07-11T17:54:42.050Z,15.57
2017-07-11T17:57:10.166Z,14.37
2017-07-11T17:59:41.467Z,14.97
2017-07-11T18:02:09.132Z,15.87
2017-07-11T18:04:36.556Z,14.93
2017-07-11T18:07:04.714Z,16.00
2017-07-11T18:09:33.075Z,11.57
2017-07-11T18:12:00.534Z,11.83
2017-07-11T18:14:28.809Z,11.30
2017-07-11T18:16:56.252Z,11.83
2017-07-11T18:19:24.982Z,10.80
2017-07-11T18:21:52.423Z,11.77
2017-07-11T18:24:20.177Z,11.60
2017-07-11T18:26:47.590Z,12.33
2017-07-11T18:29:15.027Z,12.13
2017-07-11T18:31:42.443Z,11.83
2017-07-11T18:34:09.870Z,11.57
2017-07-11T18:36:37.305Z,11.77
2017-07-11T18:39:04.750Z,12.80
2017-07-11T18:41:32.177Z,13.43
2017-07-11T18:43:59.643Z,13.73
2017-07-11T18:46:27.066Z,12.17
2017-07-11T18:48:54.482Z,12.53
2017-07-11T18:51:21.917Z,12.97
2017-07-11T18:53:50.164Z,12.13
2017-07-11T18:56:17.591Z,11.80
2017-07-11T18:58:45.035Z,11.43
2017-07-11T19:01:12.456Z,12.70
2017-07-11T19:03:39.866Z,14.00
2017-07-11T19:06:07.332Z,14.23
2017-07-11T19:08:34.858Z,13.13
2017-07-11T19:11:02.265Z,13.53
2017-07-11T19:13:29.698Z,12.93
2017-07-11T19:15:57.147Z,14.90
2017-07-11T19:18:24.572Z,13.80
2017-07-11T19:20:53.581Z,14.10
2017-07-11T19:23:21.026Z,14.30
2017-07-11T19:25:48.463Z,15.67
2017-07-11T19:28:15.914Z,14.50
2017-07-11T19:30:43.342Z,16.37
2017-07-11T19:33:10.759Z,15.97
2017-07-11T19:35:38.214Z,13.80
2017-07-11T19:38:05.627Z,14.23
2017-07-11T19:40:33.043Z,13.20
2017-07-11T19:43:00.476Z,15.60
2017-07-11T19:45:27.892Z,14.70
2017-07-11T19:47:55.307Z,13.90
2017-07-11T19:50:22.756Z,13.50
2017-07-11T19:52:50.191Z,14.73
2017-07-11T19:55:17.603Z,14.47
2017-07-11T19:57:45.039Z,13.57
2017-07-11T20:00:12.454Z,13.87
2017-07-11T20:02:39.868Z,13.90
2017-07-11T20:05:07.299Z,14.40
2017-07-11T20:07:35.435Z,13.30
2017-07-11T20:10:02.854Z,13.90
2017-07-11T20:12:30.298Z,14.53
2017-07-11T20:14:57.720Z,13.33
2017-07-11T20:17:25.135Z,14.87
2017-07-11T20:19:52.579Z,13.83
2017-07-11T20:22:19.994Z,14.93
2017-07-11T20:24:47.435Z,15.67
2017-07-11T20:27:14.899Z,14.90
2017-07-11T20:29:42.322Z,14.00
2017-07-11T20:32:09.739Z,13.87
2017-07-11T20:34:37.175Z,14.90
2017-07-11T20:37:04.587Z,15.47
2017-07-11T20:39:32.006Z,14.87
2017-07-11T20:41:59.439Z,14.47
2017-07-11T20:44:26.860Z,15.20
2017-07-11T20:46:54.287Z,14.90
2017-07-11T20:49:21.723Z,15.07
2017-07-11T20:51:49.140Z,15.07
2017-07-11T20:54:16.562Z,15.13
2017-07-11T20:56:44.002Z,14.63
2017-07-11T20:59:11.431Z,15.47
2017-07-11T21:01:38.843Z,14.43
2017-07-11T21:04:06.282Z,15.30
2017-07-11T21:06:33.701Z,15.77
2017-07-11T21:09:01.122Z,14.40
2017-07-11T21:11:28.551Z,15.70
2017-07-11T21:13:55.971Z,15.30
2017-07-11T21:16:23.392Z,16.30
2017-07-11T21:18:50.835Z,15.27
2017-07-11T21:21:18.250Z,15.87
2017-07-11T21:23:45.679Z,14.87
2017-07-11T21:26:13.109Z,14.57
2017-07-11T21:28:40.527Z,16.87
2017-07-11T21:31:07.943Z,16.20
2017-07-11T21:33:35.375Z,16.03
2017-07-11T21:36:02.791Z,16.30
2017-07-11T21:38:30.198Z,17.20
2017-07-11T21:40:57.639Z,15.37
2017-07-11T21:43:25.054Z,15.10
2017-07-11T21:45:52.462Z,15.43
2017-07-11T21:48:19.898Z,14.60
2017-07-11T21:50:47.314Z,14.67
2017-07-11T21:53:14.727Z,15.37
2017-07-11T21:55:42.160Z,16.03
2017-07-11T21:58:09.587Z,15.20
2017-07-11T22:00:37.004Z,15.00
2017-07-11T22:03:04.435Z,15.70
2017-07-11T22:05:31.852Z,14.70
2017-07-11T22:07:59.274Z,15.23
2017-07-11T22:10:26.715Z,14.70
2017-07-11T22:12:54.126Z,13.90
2017-07-11T22:15:21.538Z,13.43
2017-07-11T22:17:48.974Z,13.70
2017-07-11T22:20:16.392Z,14.00
2017-07-11T22:22:43.801Z,14.33
2017-07-11T22:25:11.823Z,14.60
2017-07-11T22:27:39.230Z,14.27
2017-07-11T22:30:06.646Z,12.83
2017-07-11T22:32:34.067Z,14.27
2017-07-11T22:35:01.474Z,12.83
2017-07-11T22:37:28.887Z,13.20
2017-07-11T22:39:56.318Z,12.43
2017-07-11T22:42:23.727Z,13.40
2017-07-11T22:44:51.156Z,13.40
2017-07-11T22:47:18.583Z,14.77
2017-07-11T22:49:46.006Z,13.47
2017-07-11T22:52:13.417Z,13.00
2017-07-11T22:54:40.853Z,13.53
2017-07-11T22:57:08.259Z,12.50
2017-07-11T22:59:35.673Z,14.27
2017-07-11T23:02:03.103Z,14.13
2017-07-11T23:04:30.514Z,13.10
2017-07-11T23:06:57.935Z,13.57
2017-07-11T23:09:25.362Z,12.83
2017-07-11T23:11:52.778Z,12.90
2017-07-11T23:14:20.179Z,13.63
2017-07-11T23:16:47.607Z,13.57
2017-07-11T23:19:15.028Z,12.97
2017-07-11T23:21:42.440Z,13.80
2017-07-11T23:24:09.865Z,13.47
2017-07-11T23:26:37.283Z,13.60
2017-07-11T23:29:04.691Z,13.90
2017-07-11T23:31:32.371Z,12.50
2017-07-11T23:33:59.786Z,12.90
2017-07-11T23:36:27.200Z,13.20
2017-07-11T23:38:54.628Z,12.40
2017-07-11T23:41:22.043Z,13.00
2017-07-11T23:43:49.449Z,13.33
2017-07-11T23:46:16.885Z,12.53
2017-07-11T23:48:44.289Z,12.47
2017-07-11T23:51:11.704Z,12.53
2017-07-11T23:53:39.140Z,12.80
2017-07-11T23:56:06.551Z,12.17
2017-07-11T23:58:33.952Z,12.27
